createdAt,value
2018-04-12T00:02:12.101Z,12.23
2018-04-12T00:07:13.437Z,12.05
2018-04-12T00:12:14.755Z,12.03
2018-04-12T00:17:16.811Z,12.00
2018-04-12T00:22:18.138Z,12.14
2018-04-12T00:27:19.441Z,12.19
2018-04-12T00:32:21.480Z,12.46
2018-04-12T00:37:22.797Z,12.73
2018-04-12T00:42:24.109Z,12.65
2018-04-12T00:47:25.442Z,12.93
2018-04-12T00:52:26.797Z,12.86
2018-04-12T00:57:28.870Z,12.85
2018-04-12T01:02:30.180Z,12.85
2018-04-12T01:07:31.509Z,12.66
2018-04-12T01:12:32.826Z,12.71
2018-04-12T01:17:34.141Z,12.58
2018-04-12T01:22:35.458Z,12.99
2018-04-12T01:27:37.482Z,12.84
2018-04-12T01:32:38.837Z,12.92
2018-04-12T01:37:40.146Z,12.83
2018-04-12T01:42:42.207Z,12.76
2018-04-12T01:47:43.522Z,12.96
2018-04-12T01:52:44.829Z,12.85
2018-04-12T01:57:46.883Z,12.88
2018-04-12T02:02:48.190Z,12.80
2018-04-12T02:07:49.498Z,12.68
2018-04-12T02:12:50.823Z,12.67
2018-04-12T02:17:52.126Z,12.55
2018-04-12T02:22:53.426Z,12.53
2018-04-12T02:27:54.761Z,12.59
2018-04-12T02:32:56.077Z,12.78
2018-04-12T02:37:57.427Z,12.86
2018-04-12T02:42:58.719Z,12.11
2018-04-12T02:48:00.034Z,12.08
2018-04-12T02:53:02.130Z,12.19
2018-04-12T02:58:04.210Z,11.93
2018-04-12T03:03:05.544Z,11.79
2018-04-12T03:08:06.875Z,11.85
2018-04-12T03:13:08.295Z,11.85
2018-04-12T03:18:10.392Z,11.77
2018-04-12T03:23:11.733Z,11.64
2018-04-12T03:28:13.052Z,11.59
2018-04-12T03:33:14.369Z,11.63
2018-04-12T03:38:15.659Z,11.68
2018-04-12T03:43:16.972Z,11.61
2018-04-12T03:48:18.290Z,11.71
2018-04-12T03:53:19.610Z,11.72
2018-04-12T03:58:20.923Z,11.89
2018-04-12T04:03:22.983Z,11.79
2018-04-12T04:08:24.319Z,11.64
2018-04-12T04:13:26.354Z,11.64
2018-04-12T04:18:46.122Z,11.37
2018-04-12T04:23:47.438Z,11.34
2018-04-12T04:28:49.501Z,11.14
2018-04-12T04:33:50.819Z,10.94
2018-04-12T04:38:52.149Z,10.94
2018-04-12T04:43:53.483Z,10.84
2018-04-12T04:48:54.818Z,10.61
2018-04-12T04:53:56.133Z,10.68
2018-04-12T04:58:57.464Z,10.58
2018-04-12T05:03:58.762Z,10.75
2018-04-12T05:09:00.098Z,10.51
2018-04-12T05:14:01.438Z,10.69
2018-04-12T05:19:02.780Z,11.05
2018-04-12T05:24:04.131Z,11.34
2018-04-12T05:29:06.228Z,11.26
2018-04-12T05:34:07.593Z,11.19
2018-04-12T05:39:09.018Z,10.92
2018-04-12T05:44:11.070Z,10.87
2018-04-12T05:49:12.405Z,10.69
2018-04-12T05:54:13.714Z,10.88
2018-04-12T05:59:15.774Z,10.91
2018-04-12T06:04:17.111Z,10.56
2018-04-12T06:09:19.186Z,10.49
2018-04-12T06:14:20.485Z,10.70
2018-04-12T06:19:21.803Z,10.37
2018-04-12T06:24:23.098Z,10.58
2018-04-12T06:29:24.431Z,10.91
2018-04-12T06:34:25.749Z,10.54
2018-04-12T06:39:27.782Z,10.65
2018-04-12T06:44:29.083Z,10.86
2018-04-12T06:49:30.430Z,11.10
2018-04-12T06:54:32.486Z,11.21
2018-04-12T06:59:33.881Z,10.86
2018-04-12T07:04:35.886Z,11.25
2018-04-12T07:09:37.214Z,11.29
2018-04-12T07:14:38.535Z,11.39
2018-04-12T07:19:39.859Z,11.23
2018-04-12T07:24:41.167Z,11.15
2018-04-12T07:29:42.470Z,10.83
2018-04-12T07:34:43.816Z,11.07
2018-04-12T07:39:45.130Z,11.07
2018-04-12T07:44:46.444Z,11.48
2018-04-12T07:49:47.779Z,11.43
2018-04-12T07:54:49.089Z,11.54
2018-04-12T07:59:50.419Z,11.45
2018-04-12T08:04:52.474Z,11.69
2018-04-12T08:09:53.794Z,11.84
2018-04-12T08:14:55.125Z,11.82
2018-04-12T08:19:56.441Z,12.06
2018-04-12T08:24:57.734Z,11.80
2018-04-12T08:29:59.039Z,12.13
2018-04-12T08:35:00.340Z,12.26
2018-04-12T08:40:01.674Z,12.09
2018-04-12T08:45:03.030Z,12.13
2018-04-12T08:50:04.370Z,12.06
2018-04-12T08:55:05.703Z,11.92
2018-04-12T09:00:06.998Z,12.07
2018-04-12T09:05:08.316Z,12.27
2018-04-12T09:10:09.654Z,12.51
2018-04-12T09:15:10.970Z,12.86
2018-04-12T09:20:13.024Z,12.71
2018-04-12T09:25:14.334Z,12.82
2018-04-12T09:30:15.638Z,13.19
2018-04-12T09:35:16.948Z,13.32
2018-04-12T09:40:18.986Z,13.23
2018-04-12T09:45:20.302Z,13.21
2018-04-12T09:50:21.623Z,13.60
2018-04-12T09:55:22.935Z,13.97
2018-04-12T10:00:26.253Z,13.74
2018-04-12T10:05:29.250Z,13.78
2018-04-12T10:10:30.541Z,13.54
2018-04-12T10:15:31.858Z,13.50
2018-04-12T10:20:33.184Z,13.21
2018-04-12T10:25:34.579Z,13.64
2018-04-12T10:30:36.594Z,13.43
2018-04-12T10:35:37.922Z,13.81
2018-04-12T10:40:39.250Z,13.78
2018-04-12T10:45:40.587Z,14.03
2018-04-12T10:50:41.919Z,14.07
2018-04-12T10:55:43.998Z,14.15
2018-04-12T11:00:45.302Z,14.42
2018-04-12T11:05:47.339Z,14.35
2018-04-12T11:10:48.663Z,14.79
2018-04-12T11:15:49.978Z,14.83
2018-04-12T11:20:51.270Z,14.93
2018-04-12T11:25:52.602Z,15.18
2018-04-12T11:30:53.914Z,15.40
2018-04-12T11:35:55.242Z,15.42
2018-04-12T11:40:57.313Z,15.38
2018-04-12T11:45:58.618Z,15.14
2018-04-12T11:50:59.969Z,15.41
2018-04-12T11:56:01.275Z,15.58
2018-04-12T12:01:02.618Z,15.71
2018-04-12T12:06:04.691Z,16.08
2018-04-12T12:11:06.042Z,16.08
2018-04-12T12:16:07.363Z,16.54
2018-04-12T12:21:08.681Z,16.54
2018-04-12T12:26:10.758Z,17.53
2018-04-12T12:31:12.097Z,18.39
2018-04-12T12:36:13.420Z,18.17
2018-04-12T12:41:14.738Z,18.08
2018-04-12T12:46:16.066Z,18.16
2018-04-12T12:51:17.391Z,18.26
2018-04-12T12:56:18.710Z,18.67
2018-04-12T13:01:20.033Z,18.46
2018-04-12T13:06:21.431Z,18.28
2018-04-12T13:11:22.739Z,18.45
2018-04-12T13:16:24.054Z,18.77
2018-04-12T13:21:25.361Z,18.90
2018-04-12T13:26:27.446Z,19.06
2018-04-12T13:31:28.782Z,19.08
2018-04-12T13:36:30.109Z,19.36
2018-04-12T13:41:31.434Z,19.58
2018-04-12T13:46:32.738Z,19.70
2018-04-12T13:51:34.831Z,20.03
2018-04-12T13:56:36.240Z,20.25
2018-04-12T14:01:37.661Z,20.68
2018-04-12T14:06:39.109Z,20.63
2018-04-12T14:11:41.196Z,20.64
2018-04-12T14:16:43.630Z,20.85
2018-04-12T14:21:44.944Z,20.92
2018-04-12T14:26:46.275Z,21.33
2018-04-12T14:31:47.602Z,21.27
2018-04-12T14:36:49.674Z,21.43
2018-04-12T14:41:51.028Z,21.31
2018-04-12T14:46:52.345Z,21.19
2018-04-12T14:51:53.707Z,21.29
2018-04-12T14:56:55.030Z,21.49
2018-04-12T15:01:56.355Z,21.49
2018-04-12T15:06:58.028Z,21.43
2018-04-12T15:11:59.362Z,21.67
2018-04-12T15:17:00.783Z,21.77
2018-04-12T15:22:02.289Z,22.03
2018-04-12T15:27:03.619Z,22.04
2018-04-12T15:32:05.758Z,22.34
2018-04-12T15:37:07.776Z,22.05
2018-04-12T15:42:10.024Z,21.95
2018-04-12T15:47:11.339Z,21.82
2018-04-12T15:52:12.747Z,21.85
2018-04-12T15:57:14.073Z,22.09
2018-04-12T16:02:15.402Z,21.83
2018-04-12T16:07:17.462Z,21.69
2018-04-12T16:12:18.770Z,21.89
2018-04-12T16:17:20.190Z,21.93
2018-04-12T16:39:06.640Z,21.69
2018-04-12T16:44:08.031Z,21.79
2018-04-12T16:49:09.353Z,21.74
2018-04-12T16:54:10.667Z,21.65
2018-04-12T16:59:11.981Z,21.68
2018-04-12T17:04:14.117Z,21.59
2018-04-12T17:09:15.448Z,21.75
2018-04-12T17:14:16.820Z,21.72
2018-04-12T17:19:19.012Z,21.53
2018-04-12T17:24:20.413Z,21.69
2018-04-12T17:29:21.843Z,21.62
2018-04-12T17:34:23.903Z,21.56
2018-04-12T17:39:25.249Z,21.46
2018-04-12T17:44:27.329Z,21.20
2018-04-12T17:49:28.691Z,21.17
2018-04-12T17:54:30.078Z,21.11
2018-04-12T17:59:33.144Z,21.05
2018-04-12T18:04:34.982Z,21.00
2018-04-12T18:09:37.085Z,20.88
2018-04-12T18:14:39.362Z,20.81
2018-04-12T18:19:40.738Z,20.64
2018-04-12T18:24:42.126Z,20.75
2018-04-12T18:29:43.496Z,20.59
2018-04-12T18:34:44.870Z,20.65
2018-04-12T18:39:46.952Z,20.59
2018-04-12T18:44:48.274Z,20.43
2018-04-12T18:49:49.882Z,20.55
2018-04-12T18:54:51.310Z,20.49
2018-04-12T18:59:52.642Z,20.48
2018-04-12T19:04:54.862Z,20.30
2018-04-12T19:09:56.154Z,20.11
2018-04-12T19:14:58.283Z,20.01
2018-04-12T19:19:59.620Z,20.00
2018-04-12T19:25:01.031Z,19.98
2018-04-12T19:30:03.128Z,19.96
2018-04-12T19:35:04.483Z,19.90
2018-04-12T19:40:05.806Z,19.79
2018-04-12T19:45:07.908Z,19.93
2018-04-12T19:50:10.007Z,20.03
2018-04-12T19:55:12.243Z,20.04
2018-04-12T20:00:14.319Z,19.96
2018-04-12T20:05:15.686Z,19.97
2018-04-12T20:10:17.006Z,20.01
2018-04-12T20:15:18.305Z,19.88
2018-04-12T20:20:20.375Z,19.79
2018-04-12T20:25:21.710Z,19.61
2018-04-12T20:30:23.761Z,19.47
2018-04-12T20:35:25.071Z,19.13
2018-04-12T20:40:26.428Z,19.14
2018-04-12T20:45:27.774Z,18.97
2018-04-12T20:50:29.859Z,18.83
2018-04-12T20:55:31.190Z,18.78
2018-04-12T21:00:33.238Z,18.82
2018-04-12T21:05:34.569Z,18.94
2018-04-12T21:10:36.643Z,18.80
2018-04-12T21:15:37.994Z,18.52
2018-04-12T21:20:39.323Z,18.62
2018-04-12T21:25:40.638Z,18.60
2018-04-12T21:30:41.973Z,18.63
2018-04-12T21:35:43.277Z,18.76
2018-04-12T21:40:44.598Z,18.85
2018-04-12T21:45:45.926Z,18.83
2018-04-12T21:50:47.266Z,18.72
2018-04-12T21:55:48.605Z,18.84
2018-04-12T22:00:49.946Z,18.99
2018-04-12T22:05:51.274Z,19.09
2018-04-12T22:10:53.338Z,18.96
2018-04-12T22:15:54.670Z,18.82
2018-04-12T22:20:55.981Z,18.65
2018-04-12T22:25:57.320Z,18.62
2018-04-12T22:30:58.642Z,18.59
2018-04-12T22:35:59.971Z,18.47
2018-04-12T22:41:01.291Z,18.52
2018-04-12T22:46:02.634Z,18.50
2018-04-12T22:51:03.998Z,18.33
2018-04-12T22:56:06.056Z,18.29
2018-04-12T23:01:07.389Z,18.14
2018-04-12T23:06:08.723Z,18.40
2018-04-12T23:11:10.048Z,18.48
2018-04-12T23:16:11.365Z,18.59
2018-04-12T23:21:12.693Z,18.70
2018-04-12T23:26:14.006Z,18.88
2018-04-12T23:31:15.320Z,18.83
2018-04-12T23:36:17.379Z,18.92
2018-04-12T23:41:18.699Z,18.90
2018-04-12T23:46:20.022Z,18.77
2018-04-12T23:51:21.355Z,18.87
2018-04-12T23:56:22.674Z,18.82
